Time,TemperatureF,DewpointF,PressureIn,WindDirection,WindDirectionDegrees,WindSpeedMPH,WindSpeedGustMPH,Humidity,HourlyPrecipIn,Conditions,Clouds,dailyrainin,SoftwareType,DateUTC
2013-01-25 00:00:00,16.3,9.8,30.59,East,91,3.0,5.0,75,0.00,,OVC170,0.00,VWS V14.01,2013-01-25 05:00:00,
2013-01-25 00:01:00,16.3,9.8,30.58,East,85,4.0,5.0,75,0.00,,OVC150,0.00,VWS V14.01,2013-01-25 05:01:00,
2013-01-25 00:03:00,16.3,9.8,30.58,ENE,70,4.0,4.0,75,0.00,,OVC150,0.00,VWS V14.01,2013-01-25 05:03:00,
2013-01-25 00:08:00,16.4,9.9,30.58,East,92,4.0,5.0,75,0.00,,OVC150,0.00,VWS V14.01,2013-01-25 05:08:00,
2013-01-25 00:13:00,16.4,9.6,30.58,ESE,102,3.0,6.0,74,0.00,,OVC150,0.00,VWS V14.01,2013-01-25 05:13:00,
2013-01-25 00:18:00,16.4,9.3,30.58,ESE,114,1.0,4.0,73,0.00,,OVC150,0.00,VWS V14.01,2013-01-25 05:18:00,
2013-01-25 00:23:00,16.4,9.0,30.58,ENE,61,3.0,4.0,72,0.00,,OVC150,0.00,VWS V14.01,2013-01-25 05:23:00,
2013-01-25 00:28:00,16.3,8.9,30.58,ENE,75,3.0,4.0,72,0.00,,OVC150,0.00,VWS V14.01,2013-01-25 05:28:00,
2013-01-25 00:33:00,16.3,8.6,30.58,East,89,4.0,5.0,71,0.00,,OVC150,0.00,VWS V14.01,2013-01-25 05:33:00,
2013-01-25 00:38:00,16.3,8.6,30.58,ENE,72,1.0,3.0,71,0.00,,OVC150,0.00,VWS V14.01,2013-01-25 05:38:00,
2013-01-25 00:43:00,16.2,8.5,30.58,ESE,120,3.0,4.0,71,0.00,,OVC150,0.00,VWS V14.01,2013-01-25 05:43:00,
2013-01-25 00:48:00,16.2,8.8,30.58,East,86,2.0,3.0,72,0.00,,OVC150,0.00,VWS V14.01,2013-01-25 05:48:00,
2013-01-25 00:53:00,16.1,8.7,30.57,ESE,113,4.0,4.0,72,0.00,,OVC150,0.00,VWS V14.01,2013-01-25 05:53:00,
2013-01-25 00:58:00,16.1,8.7,30.57,ESE,102,2.0,4.0,72,0.00,,OVC150,0.00,VWS V14.01,2013-01-25 05:58:00,
2013-01-25 01:03:00,16.0,8.6,30.57,ESE,108,2.0,3.0,72,0.00,,OVC150,0.00,VWS V14.01,2013-01-25 06:03:00,
2013-01-25 01:08:00,16.0,8.9,30.57,ESE,108,3.0,4.0,73,0.00,,OVC150,0.00,VWS V14.01,2013-01-25 06:08:00,
2013-01-25 01:13:00,15.9,8.8,30.56,ESE,113,1.0,4.0,73,0.00,,OVC150,0.00,VWS V14.01,2013-01-25 06:13:00,
2013-01-25 01:18:00,15.6,8.8,30.56,ESE,105,2.0,4.0,74,0.00,,OVC150,0.00,VWS V14.01,2013-01-25 06:18:00,
2013-01-25 01:23:00,15.4,9.2,30.55,East,99,3.0,5.0,76,0.00,,OVC150,0.00,VWS V14.01,2013-01-25 06:23:00,
2013-01-25 01:28:00,15.3,9.4,30.55,ESE,103,3.0,4.0,77,0.00,,OVC150,0.00,VWS V14.01,2013-01-25 06:28:00,
2013-01-25 01:33:00,15.2,9.3,30.55,East,100,4.0,4.0,77,0.00,,OVC150,0.00,VWS V14.01,2013-01-25 06:33:00,
2013-01-25 01:38:00,15.2,9.3,30.55,ESE,103,2.0,4.0,77,0.00,,OVC150,0.00,VWS V14.01,2013-01-25 06:38:00,
2013-01-25 01:43:00,15.2,9.6,30.54,ESE,107,4.0,4.0,78,0.00,,OVC150,0.00,VWS V14.01,2013-01-25 06:43:00,
2013-01-25 01:48:00,15.4,9.8,30.54,ESE,104,4.0,4.0,78,0.00,,OVC150,0.00,VWS V14.01,2013-01-25 06:48:00,
2013-01-25 01:53:00,15.4,9.8,30.53,East,79,5.0,6.0,78,0.00,,OVC150,0.00,VWS V14.01,2013-01-25 06:53:00,
2013-01-25 01:58:00,15.5,9.6,30.53,ESE,105,3.0,4.0,77,0.00,,OVC150,0.00,VWS V14.01,2013-01-25 06:58:00,
2013-01-25 02:03:00,15.6,9.4,30.53,ENE,75,5.0,5.0,76,0.00,,OVC150,0.00,VWS V14.01,2013-01-25 07:03:00,
2013-01-25 02:08:00,15.8,9.3,30.53,ENE,59,6.0,6.0,75,0.00,,OVC150,0.00,VWS V14.01,2013-01-25 07:08:00,
2013-01-25 02:13:00,16.0,8.9,30.52,ESE,105,2.0,7.0,73,0.00,,OVC150,0.00,VWS V14.01,2013-01-25 07:13:00,
2013-01-25 02:18:00,16.2,8.8,30.52,East,90,6.0,10.0,72,0.00,,OVC150,0.00,VWS V14.01,2013-01-25 07:18:00,
2013-01-25 02:23:00,16.3,8.6,30.52,East,80,7.0,9.0,71,0.00,,OVC150,0.00,VWS V14.01,2013-01-25 07:23:00,
2013-01-25 02:28:00,16.4,8.3,30.52,ESE,105,9.0,10.0,70,0.00,,OVC150,0.00,VWS V14.01,2013-01-25 07:28:00,
2013-01-25 02:33:00,16.6,7.9,30.52,East,92,8.0,10.0,68,0.00,,OVC150,0.00,VWS V14.01,2013-01-25 07:33:00,
2013-01-25 02:38:00,16.7,7.7,30.53,ESE,121,4.0,8.0,67,0.00,,OVC150,0.00,VWS V14.01,2013-01-25 07:38:00,
2013-01-25 02:43:00,16.8,7.8,30.53,ENE,71,5.0,7.0,67,0.00,,OVC150,0.00,VWS V14.01,2013-01-25 07:43:00,
2013-01-25 02:48:00,16.8,7.8,30.53,East,87,5.0,7.0,67,0.00,,OVC150,0.00,VWS V14.01,2013-01-25 07:48:00,
2013-01-25 02:53:00,16.9,7.5,30.52,ENE,78,7.0,11.0,66,0.00,,OVC150,0.00,VWS V14.01,2013-01-25 07:53:00,
2013-01-25 02:58:00,16.9,7.8,30.52,East,95,5.0,7.0,67,0.00,,OVC150,0.00,VWS V14.01,2013-01-25 07:58:00,
2013-01-25 03:03:00,16.9,7.5,30.52,ENE,62,7.0,8.0,66,0.00,,OVC120,0.00,VWS V14.01,2013-01-25 08:03:00,
2013-01-25 03:08:00,16.9,7.5,30.52,East,96,10.0,12.0,66,0.00,,OVC120,0.00,VWS V14.01,2013-01-25 08:08:00,
2013-01-25 03:13:00,16.8,7.4,30.51,East,96,9.0,10.0,66,0.00,,OVC120,0.00,VWS V14.01,2013-01-25 08:13:00,
2013-01-25 03:18:00,16.8,7.4,30.50,East,94,13.0,14.0,66,0.00,,OVC120,0.00,VWS V14.01,2013-01-25 08:18:00,
2013-01-25 03:23:00,16.8,7.4,30.50,East,93,8.0,10.0,66,0.00,,OVC120,0.00,VWS V14.01,2013-01-25 08:23:00,
2013-01-25 03:28:00,16.9,7.5,30.51,East,96,7.0,8.0,66,0.00,,OVC120,0.00,VWS V14.01,2013-01-25 08:28:00,
2013-01-25 03:33:00,16.9,7.5,30.52,ENE,75,6.0,8.0,66,0.00,,OVC120,0.00,VWS V14.01,2013-01-25 08:33:00,
2013-01-25 03:38:00,17.0,7.6,30.51,East,94,9.0,9.0,66,0.00,,OVC120,0.00,VWS V14.01,2013-01-25 08:38:00,
2013-01-25 03:43:00,17.0,7.3,30.51,ESE,105,5.0,9.0,65,0.00,,OVC120,0.00,VWS V14.01,2013-01-25 08:43:00,
2013-01-25 03:48:00,17.0,7.6,30.51,ENE,66,5.0,7.0,66,0.00,,OVC120,0.00,VWS V14.01,2013-01-25 08:48:00,
2013-01-25 03:53:00,17.1,7.7,30.51,SE,124,2.0,5.0,66,0.00,,OVC120,0.00,VWS V14.01,2013-01-25 08:53:00,
2013-01-25 03:58:00,17.1,7.7,30.51,ESE,104,2.0,7.0,66,0.00,,OVC120,0.00,VWS V14.01,2013-01-25 08:58:00,
2013-01-25 04:03:00,17.1,7.7,30.50,ESE,117,4.0,5.0,66,0.00,,OVC110,0.00,VWS V14.01,2013-01-25 09:03:00,
2013-01-25 04:08:00,17.1,7.4,30.49,East,97,4.0,8.0,65,0.00,,OVC110,0.00,VWS V14.01,2013-01-25 09:08:00,
2013-01-25 04:13:00,17.1,7.4,30.49,ESE,108,5.0,10.0,65,0.00,,OVC110,0.00,VWS V14.01,2013-01-25 09:13:00,
2013-01-25 04:18:00,17.1,7.4,30.48,ESE,109,6.0,9.0,65,0.00,,OVC110,0.00,VWS V14.01,2013-01-25 09:18:00,
2013-01-25 04:23:00,17.1,7.7,30.48,East,86,7.0,8.0,66,0.00,,OVC110,0.00,VWS V14.01,2013-01-25 09:23:00,
2013-01-25 04:28:00,17.2,7.5,30.47,East,83,6.0,8.0,65,0.00,,OVC110,0.00,VWS V14.01,2013-01-25 09:28:00,
2013-01-25 04:33:00,17.2,7.5,30.47,ESE,106,4.0,7.0,65,0.00,,OVC110,0.00,VWS V14.01,2013-01-25 09:33:00,
2013-01-25 04:38:00,17.2,7.5,30.47,East,96,4.0,6.0,65,0.00,,OVC110,0.00,VWS V14.01,2013-01-25 09:38:00,
2013-01-25 04:43:00,17.3,7.6,30.46,East,97,3.0,5.0,65,0.00,,OVC110,0.00,VWS V14.01,2013-01-25 09:43:00,
2013-01-25 04:48:00,17.3,7.9,30.45,ENE,66,5.0,8.0,66,0.00,,OVC110,0.00,VWS V14.01,2013-01-25 09:48:00,
2013-01-25 04:53:00,17.3,7.6,30.44,East,82,4.0,9.0,65,0.00,,OVC110,0.00,VWS V14.01,2013-01-25 09:53:00,
2013-01-25 04:58:00,17.3,7.9,30.44,ESE,106,4.0,6.0,66,0.00,,OVC110,0.00,VWS V14.01,2013-01-25 09:58:00,
2013-01-25 05:03:00,17.3,7.9,30.44,East,93,8.0,8.0,66,0.00,,OVC110,0.00,VWS V14.01,2013-01-25 10:03:00,
2013-01-25 05:08:00,17.3,8.2,30.42,East,94,8.0,10.0,67,0.00,,OVC110,0.00,VWS V14.01,2013-01-25 10:08:00,
2013-01-25 05:13:00,17.3,8.2,30.43,ENE,72,7.0,9.0,67,0.00,,OVC110,0.00,VWS V14.01,2013-01-25 10:13:00,
2013-01-25 05:18:00,17.3,8.2,30.42,SE,127,2.0,8.0,67,0.00,,OVC110,0.00,VWS V14.01,2013-01-25 10:18:00,
2013-01-25 05:23:00,17.3,8.6,30.41,ENE,60,5.0,8.0,68,0.00,,OVC110,0.00,VWS V14.01,2013-01-25 10:23:00,
2013-01-25 05:28:00,17.3,8.6,30.41,ESE,111,3.0,8.0,68,0.00,,OVC110,0.00,VWS V14.01,2013-01-25 10:28:00,
2013-01-25 05:33:00,17.3,8.6,30.40,ENE,76,5.0,11.0,68,0.00,,OVC110,0.00,VWS V14.01,2013-01-25 10:33:00,
2013-01-25 05:38:00,17.3,8.6,30.39,ENE,68,9.0,16.0,68,0.00,,OVC110,0.00,VWS V14.01,2013-01-25 10:38:00,
2013-01-25 05:43:00,17.3,8.6,30.39,ENE,74,13.0,13.0,68,0.00,,OVC110,0.00,VWS V14.01,2013-01-25 10:43:00,
2013-01-25 05:48:00,17.3,8.6,30.39,East,86,5.0,11.0,68,0.00,,OVC110,0.00,VWS V14.01,2013-01-25 10:48:00,
2013-01-25 05:53:00,17.3,8.6,30.39,East,84,9.0,12.0,68,0.00,,OVC110,0.00,VWS V14.01,2013-01-25 10:53:00,
2013-01-25 05:58:00,17.3,8.2,30.38,ENE,67,6.0,11.0,67,0.00,,OVC110,0.00,VWS V14.01,2013-01-25 10:58:00,
2013-01-25 06:03:00,17.3,8.2,30.38,NE,46,5.0,11.0,67,0.00,,OVC100,0.00,VWS V14.01,2013-01-25 11:03:00,
2013-01-25 06:08:00,17.3,8.2,30.38,ENE,58,6.0,7.0,67,0.00,,OVC100,0.00,VWS V14.01,2013-01-25 11:08:00,
2013-01-25 06:13:00,17.3,7.9,30.39,ESE,116,9.0,11.0,66,0.00,,OVC100,0.00,VWS V14.01,2013-01-25 11:13:00,
2013-01-25 06:18:00,17.3,7.9,30.39,East,86,8.0,12.0,66,0.00,,OVC100,0.00,VWS V14.01,2013-01-25 11:18:00,
2013-01-25 06:23:00,17.3,7.6,30.38,ENE,68,6.0,10.0,65,0.00,,OVC100,0.00,VWS V14.01,2013-01-25 11:23:00,
2013-01-25 06:28:00,17.3,7.9,30.40,ENE,71,2.0,4.0,66,0.00,,OVC100,0.00,VWS V14.01,2013-01-25 11:28:00,
2013-01-25 06:33:00,17.3,8.2,30.39,East,85,3.0,6.0,67,0.00,,OVC100,0.00,VWS V14.01,2013-01-25 11:33:00,
2013-01-25 06:38:00,17.4,8.0,30.40,ESE,103,6.0,6.0,66,0.00,,OVC100,0.00,VWS V14.01,2013-01-25 11:38:00,
2013-01-25 06:43:00,17.4,8.0,30.39,NE,53,5.0,7.0,66,0.00,,OVC100,0.00,VWS V14.01,2013-01-25 11:43:00,
2013-01-25 06:48:00,17.5,8.1,30.39,East,93,5.0,5.0,66,0.00,,OVC100,0.00,VWS V14.01,2013-01-25 11:48:00,
2013-01-25 06:53:00,17.5,8.1,30.39,ESE,105,5.0,6.0,66,0.00,,OVC100,0.00,VWS V14.01,2013-01-25 11:53:00,
2013-01-25 06:58:00,17.6,7.8,30.37,East,86,8.0,9.0,65,0.00,,OVC100,0.00,VWS V14.01,2013-01-25 11:58:00,
2013-01-25 07:03:00,17.7,8.3,30.37,ESE,108,4.0,8.0,66,0.00,,OVC080,0.00,VWS V14.01,2013-01-25 12:03:00,
2013-01-25 07:08:00,17.7,8.3,30.36,ESE,108,6.0,8.0,66,0.00,,OVC080,0.00,VWS V14.01,2013-01-25 12:08:00,
2013-01-25 07:13:00,17.8,8.4,30.37,SE,127,7.0,8.0,66,0.00,,OVC080,0.00,VWS V14.01,2013-01-25 12:13:00,
2013-01-25 07:18:00,17.6,8.5,30.37,ESE,106,8.0,8.0,67,0.00,,OVC080,0.00,VWS V14.01,2013-01-25 12:18:00,
2013-01-25 07:23:00,17.3,9.2,30.37,SE,124,3.0,7.0,70,0.00,,OVC080,0.00,VWS V14.01,2013-01-25 12:23:00,
2013-01-25 07:28:00,17.0,9.9,30.36,East,87,7.0,11.0,73,0.00,,OVC080,0.00,VWS V14.01,2013-01-25 12:28:00,
2013-01-25 07:33:00,16.7,10.2,30.36,East,86,6.0,13.0,75,0.00,,OVC080,0.00,VWS V14.01,2013-01-25 12:33:00,
2013-01-25 07:38:00,16.6,10.7,30.35,East,85,4.0,6.0,77,0.00,,OVC080,0.00,VWS V14.01,2013-01-25 12:38:00,
2013-01-25 07:43:00,16.6,10.7,30.34,East,80,4.0,8.0,77,0.00,,OVC080,0.00,VWS V14.01,2013-01-25 12:43:00,
2013-01-25 07:48:00,16.6,10.7,30.34,ENE,77,10.0,11.0,77,0.00,,,0.00,VWS V14.01,2013-01-25 12:48:00,
2013-01-25 07:53:00,16.6,10.7,30.32,ENE,72,11.0,12.0,77,0.00,,,0.00,VWS V14.01,2013-01-25 12:53:00,
2013-01-25 07:58:00,16.6,10.7,30.31,East,96,12.0,12.0,77,0.00,,,0.00,VWS V14.01,2013-01-25 12:58:00,
2013-01-25 08:03:00,16.6,10.9,30.31,NE,49,10.0,14.0,78,0.00,,,0.00,VWS V14.01,2013-01-25 13:03:00,
2013-01-25 08:08:00,16.6,10.9,30.31,ENE,64,11.0,13.0,78,0.00,,,0.00,VWS V14.01,2013-01-25 13:08:00,
2013-01-25 08:13:00,16.6,10.9,30.31,East,86,11.0,13.0,78,0.00,,,0.00,VWS V14.01,2013-01-25 13:13:00,
2013-01-25 08:18:00,16.6,10.9,30.32,East,82,7.0,10.0,78,0.00,,,0.00,VWS V14.01,2013-01-25 13:18:00,
2013-01-25 08:23:00,16.6,10.9,30.32,NE,47,7.0,9.0,78,0.00,,,0.00,VWS V14.01,2013-01-25 13:23:00,
2013-01-25 08:28:00,16.6,10.9,30.32,ESE,102,8.0,12.0,78,0.00,,,0.00,VWS V14.01,2013-01-25 13:28:00,
2013-01-25 08:33:00,16.6,11.2,30.32,ESE,113,8.0,10.0,79,0.00,,,0.00,VWS V14.01,2013-01-25 13:33:00,
2013-01-25 08:38:00,16.6,11.5,30.31,ESE,102,9.0,9.0,80,0.00,,,0.00,VWS V14.01,2013-01-25 13:38:00,
2013-01-25 08:43:00,16.5,11.4,30.31,ENE,65,12.0,12.0,80,0.00,,,0.00,VWS V14.01,2013-01-25 13:43:00,
2013-01-25 08:48:00,16.3,11.8,30.32,SE,124,7.0,10.0,82,0.00,,,0.00,VWS V14.01,2013-01-25 13:48:00,
2013-01-25 08:53:00,16.1,12.1,30.32,East,82,6.0,9.0,84,0.00,,,0.00,VWS V14.01,2013-01-25 13:53:00,
2013-01-25 08:58:00,15.9,12.2,30.32,SSE,150,6.0,9.0,85,0.00,,,0.00,VWS V14.01,2013-01-25 13:58:00,
2013-01-25 09:03:00,15.9,12.5,30.32,ESE,104,3.0,6.0,86,0.00,,,0.00,VWS V14.01,2013-01-25 14:03:00,
2013-01-25 09:08:00,15.8,12.6,30.32,ESE,121,7.0,9.0,87,0.00,,,0.00,VWS V14.01,2013-01-25 14:08:00,
2013-01-25 09:13:00,15.7,12.8,30.31,ESE,122,4.0,7.0,88,0.00,,,0.00,VWS V14.01,2013-01-25 14:13:00,
2013-01-25 09:18:00,15.7,12.8,30.31,East,98,5.0,8.0,88,0.00,,,0.00,VWS V14.01,2013-01-25 14:18:00,
2013-01-25 09:23:00,15.7,13.0,30.31,East,91,6.0,6.0,89,0.00,,,0.00,VWS V14.01,2013-01-25 14:23:00,
2013-01-25 09:28:00,15.8,13.1,30.31,ENE,75,5.0,9.0,89,0.00,,,0.00,VWS V14.01,2013-01-25 14:28:00,
2013-01-25 09:33:00,15.8,13.1,30.30,ENE,75,4.0,7.0,89,0.00,,,0.00,VWS V14.01,2013-01-25 14:33:00,
2013-01-25 09:38:00,15.8,13.1,30.30,ESE,115,7.0,9.0,89,0.00,,,0.00,VWS V14.01,2013-01-25 14:38:00,
2013-01-25 09:43:00,15.9,13.2,30.30,ESE,111,10.0,10.0,89,0.00,,,0.00,VWS V14.01,2013-01-25 14:43:00,
2013-01-25 09:48:00,15.8,13.1,30.30,ESE,109,6.0,8.0,89,0.00,,,0.00,VWS V14.01,2013-01-25 14:48:00,
2013-01-25 09:53:00,15.9,13.2,30.29,ESE,105,5.0,8.0,89,0.00,,,0.00,VWS V14.01,2013-01-25 14:53:00,
2013-01-25 09:58:00,16.0,13.3,30.29,ESE,113,11.0,11.0,89,0.00,,,0.00,VWS V14.01,2013-01-25 14:58:00,
2013-01-25 10:03:00,16.0,13.3,30.29,ENE,72,8.0,8.0,89,0.00,,,0.00,VWS V14.01,2013-01-25 15:03:00,
2013-01-25 10:08:00,16.1,13.4,30.28,East,86,4.0,10.0,89,0.00,,,0.00,VWS V14.01,2013-01-25 15:08:00,
2013-01-25 10:13:00,16.1,13.4,30.28,ESE,104,7.0,9.0,89,0.00,,,0.00,VWS V14.01,2013-01-25 15:13:00,
2013-01-25 10:18:00,16.2,13.5,30.27,East,92,6.0,12.0,89,0.00,,,0.00,VWS V14.01,2013-01-25 15:18:00,
2013-01-25 10:23:00,16.3,13.6,30.27,ESE,104,6.0,10.0,89,0.00,,,0.00,VWS V14.01,2013-01-25 15:23:00,
2013-01-25 10:28:00,16.3,13.6,30.27,East,94,7.0,7.0,89,0.00,,,0.00,VWS V14.01,2013-01-25 15:28:00,
2013-01-25 10:33:00,16.4,13.7,30.26,East,89,9.0,14.0,89,0.00,,,0.00,VWS V14.01,2013-01-25 15:33:00,
2013-01-25 10:38:00,16.4,13.5,30.26,ESE,102,4.0,8.0,88,0.00,,,0.00,VWS V14.01,2013-01-25 15:38:00,
2013-01-25 10:43:00,16.5,13.6,30.26,East,97,9.0,11.0,88,0.00,,,0.00,VWS V14.01,2013-01-25 15:43:00,
2013-01-25 10:48:00,16.5,13.6,30.26,East,96,5.0,9.0,88,0.00,,,0.00,VWS V14.01,2013-01-25 15:48:00,
2013-01-25 10:53:00,16.6,13.9,30.26,SE,133,6.0,7.0,89,0.00,,,0.00,VWS V14.01,2013-01-25 15:53:00,
2013-01-25 10:58:00,16.6,13.7,30.25,East,101,9.0,13.0,88,0.00,,,0.00,VWS V14.01,2013-01-25 15:58:00,
2013-01-25 11:03:00,16.5,13.6,30.25,East,99,10.0,11.0,88,0.00,,,0.00,VWS V14.01,2013-01-25 16:03:00,
2013-01-25 11:08:00,16.6,13.7,30.24,ESE,104,7.0,8.0,88,0.00,,,0.00,VWS V14.01,2013-01-25 16:08:00,
2013-01-25 11:13:00,16.7,13.8,30.24,ESE,108,6.0,10.0,88,0.00,,,0.00,VWS V14.01,2013-01-25 16:13:00,
2013-01-25 11:18:00,16.8,13.9,30.24,ENE,72,6.0,9.0,88,0.00,,,0.00,VWS V14.01,2013-01-25 16:18:00,
2013-01-25 11:23:00,16.8,13.9,30.24,ENE,68,10.0,10.0,88,0.00,,,0.00,VWS V14.01,2013-01-25 16:23:00,
2013-01-25 11:28:00,16.7,13.8,30.24,ESE,103,6.0,9.0,88,0.00,,,0.00,VWS V14.01,2013-01-25 16:28:00,
2013-01-25 11:33:00,16.9,14.0,30.24,East,89,5.0,7.0,88,0.00,,,0.00,VWS V14.01,2013-01-25 16:33:00,
2013-01-25 11:38:00,17.2,14.3,30.24,ESE,115,7.0,8.0,88,0.00,,,0.00,VWS V14.01,2013-01-25 16:38:00,
2013-01-25 11:43:00,17.1,13.9,30.23,East,96,5.0,9.0,87,0.00,,,0.00,VWS V14.01,2013-01-25 16:43:00,
2013-01-25 11:48:00,17.2,14.3,30.23,ESE,117,6.0,6.0,88,0.00,,,0.00,VWS V14.01,2013-01-25 16:48:00,
2013-01-25 11:53:00,17.3,14.4,30.23,SE,125,4.0,7.0,88,0.00,,,0.00,VWS V14.01,2013-01-25 16:53:00,
2013-01-25 11:58:00,17.4,14.2,30.22,East,93,6.0,8.0,87,0.00,,,0.00,VWS V14.01,2013-01-25 16:58:00,
2013-01-25 12:03:00,17.5,14.3,30.22,SE,131,5.0,7.0,87,0.00,,,0.00,VWS V14.01,2013-01-25 17:03:00,
2013-01-25 12:08:00,17.5,14.3,30.22,East,83,3.0,7.0,87,0.00,,,0.00,VWS V14.01,2013-01-25 17:08:00,
2013-01-25 12:13:00,17.7,14.5,30.22,ESE,122,2.0,6.0,87,0.00,,,0.00,VWS V14.01,2013-01-25 17:13:00,
2013-01-25 12:18:00,17.9,14.7,30.22,East,92,2.0,7.0,87,0.00,,,0.00,VWS V14.01,2013-01-25 17:18:00,
2013-01-25 12:23:00,18.1,14.9,30.21,East,79,5.0,5.0,87,0.00,,,0.00,VWS V14.01,2013-01-25 17:23:00,
2013-01-25 12:28:00,18.3,14.8,30.21,ESE,115,3.0,6.0,86,0.00,,,0.00,VWS V14.01,2013-01-25 17:28:00,
2013-01-25 12:33:00,18.6,14.9,30.21,ESE,106,2.0,6.0,85,0.00,,,0.00,VWS V14.01,2013-01-25 17:33:00,
2013-01-25 12:38:00,18.6,14.6,30.21,ESE,104,4.0,6.0,84,0.00,,,0.00,VWS V14.01,2013-01-25 17:38:00,
2013-01-25 12:43:00,18.5,14.5,30.20,ESE,107,5.0,6.0,84,0.00,,,0.00,VWS V14.01,2013-01-25 17:43:00,
2013-01-25 12:48:00,18.4,14.4,30.20,East,93,3.0,5.0,84,0.00,,,0.00,VWS V14.01,2013-01-25 17:48:00,
2013-01-25 12:53:00,18.5,14.5,30.19,ESE,113,2.0,6.0,84,0.00,,,0.00,VWS V14.01,2013-01-25 17:53:00,
2013-01-25 12:58:00,18.7,14.9,30.19,ESE,116,3.0,4.0,85,0.00,,,0.00,VWS V14.01,2013-01-25 17:58:00,
2013-01-25 13:03:00,19.0,15.0,30.18,SE,131,3.0,4.0,84,0.00,,,0.00,VWS V14.01,2013-01-25 18:03:00,
2013-01-25 13:08:00,19.1,14.8,30.18,ESE,113,3.0,4.0,83,0.00,,,0.00,VWS V14.01,2013-01-25 18:08:00,
2013-01-25 13:13:00,19.2,14.9,30.18,ESE,120,2.0,5.0,83,0.00,,,0.00,VWS V14.01,2013-01-25 18:13:00,
2013-01-25 13:18:00,19.2,15.2,30.18,East,100,4.0,5.0,84,0.00,,,0.00,VWS V14.01,2013-01-25 18:18:00,
2013-01-25 13:23:00,19.3,15.3,30.18,SSE,150,1.0,2.0,84,0.00,,,0.00,VWS V14.01,2013-01-25 18:23:00,
2013-01-25 13:28:00,19.7,15.4,30.18,East,79,4.0,4.0,83,0.00,,,0.00,VWS V14.01,2013-01-25 18:28:00,
2013-01-25 13:33:00,19.5,14.9,30.18,ESE,120,3.0,4.0,82,0.00,,,0.00,VWS V14.01,2013-01-25 18:33:00,
2013-01-25 13:38:00,19.7,15.4,30.18,SSW,202,1.0,2.0,83,0.00,,,0.00,VWS V14.01,2013-01-25 18:38:00,
2013-01-25 13:43:00,20.1,15.5,30.17,East,86,2.0,2.0,82,0.00,,,0.00,VWS V14.01,2013-01-25 18:43:00,
2013-01-25 13:48:00,20.1,15.2,30.17,East,97,3.0,4.0,81,0.00,,,0.00,VWS V14.01,2013-01-25 18:48:00,
2013-01-25 13:53:00,20.7,15.5,30.17,SE,146,2.0,3.0,80,0.00,,,0.00,VWS V14.01,2013-01-25 18:53:00,
2013-01-25 13:58:00,21.2,15.7,30.17,ESE,117,0.0,1.0,79,0.00,,,0.00,VWS V14.01,2013-01-25 18:58:00,
2013-01-25 14:03:00,21.5,15.7,30.16,SW,235,4.0,4.0,78,0.00,,,0.00,VWS V14.01,2013-01-25 19:03:00,
2013-01-25 14:08:00,21.4,15.9,30.16,ESE,119,2.0,2.0,79,0.00,,,0.00,VWS V14.01,2013-01-25 19:08:00,
2013-01-25 14:13:00,21.4,15.6,30.16,SSE,153,3.0,4.0,78,0.00,,,0.00,VWS V14.01,2013-01-25 19:13:00,
2013-01-25 14:18:00,21.9,16.1,30.16,SE,139,1.0,2.0,78,0.00,,,0.00,VWS V14.01,2013-01-25 19:18:00,
2013-01-25 14:23:00,22.3,16.5,30.16,WSW,252,2.0,2.0,78,0.00,,,0.00,VWS V14.01,2013-01-25 19:23:00,
2013-01-25 14:28:00,22.5,16.7,30.15,SE,131,0.0,1.0,78,0.00,,,0.00,VWS V14.01,2013-01-25 19:28:00,
2013-01-25 14:33:00,23.0,16.3,30.15,SSW,201,2.0,4.0,75,0.00,,,0.00,VWS V14.01,2013-01-25 19:33:00,
2013-01-25 14:38:00,22.5,15.5,30.15,South,180,2.0,4.0,74,0.00,,,0.00,VWS V14.01,2013-01-25 19:38:00,
2013-01-25 14:43:00,22.3,15.6,30.15,WNW,300,0.0,1.0,75,0.00,,,0.00,VWS V14.01,2013-01-25 19:43:00,
2013-01-25 14:48:00,22.7,16.3,30.15,NE,44,0.0,1.0,76,0.00,,,0.00,VWS V14.01,2013-01-25 19:48:00,
2013-01-25 14:53:00,22.8,15.5,30.15,WSW,249,1.0,4.0,73,0.00,,,0.00,VWS V14.01,2013-01-25 19:53:00,
2013-01-25 14:58:00,22.1,15.1,30.15,SW,217,3.0,4.0,74,0.00,,,0.00,VWS V14.01,2013-01-25 19:58:00,
2013-01-25 15:03:00,22.0,15.9,30.15,West,280,1.0,1.0,77,0.00,,OVC060,0.00,VWS V14.01,2013-01-25 20:03:00,
2013-01-25 15:08:00,22.0,15.6,30.15,WSW,245,0.0,4.0,76,0.00,,OVC060,0.00,VWS V14.01,2013-01-25 20:08:00,
2013-01-25 15:13:00,21.7,15.3,30.14,WSW,248,1.0,2.0,76,0.00,,OVC060,0.00,VWS V14.01,2013-01-25 20:13:00,
2013-01-25 15:18:00,22.0,15.9,30.14,SSW,207,2.0,3.0,77,0.00,,OVC060,0.00,VWS V14.01,2013-01-25 20:18:00,
2013-01-25 15:23:00,21.8,15.4,30.14,SW,233,2.0,2.0,76,0.00,,OVC060,0.00,VWS V14.01,2013-01-25 20:23:00,
2013-01-25 15:28:00,21.7,15.9,30.14,WNW,285,2.0,2.0,78,0.00,,OVC060,0.00,VWS V14.01,2013-01-25 20:28:00,
2013-01-25 15:33:00,21.5,15.4,30.14,WSW,257,1.0,3.0,77,0.00,,OVC060,0.00,VWS V14.01,2013-01-25 20:33:00,
2013-01-25 15:38:00,21.7,16.5,30.14,SW,226,0.0,1.0,80,0.00,,OVC060,0.00,VWS V14.01,2013-01-25 20:38:00,
2013-01-25 15:43:00,22.0,17.1,30.14,WSW,240,2.0,2.0,81,0.00,,OVC060,0.00,VWS V14.01,2013-01-25 20:43:00,
2013-01-25 15:48:00,21.8,16.3,30.14,South,186,1.0,2.0,79,0.00,,OVC050,0.00,VWS V14.01,2013-01-25 20:48:00,
2013-01-25 15:53:00,21.7,16.5,30.14,WNW,293,2.0,2.0,80,0.00,,OVC050,0.00,VWS V14.01,2013-01-25 20:53:00,
2013-01-25 15:58:00,21.5,16.0,30.14,SW,231,0.0,3.0,79,0.00,,OVC050,0.00,VWS V14.01,2013-01-25 20:58:00,
2013-01-25 16:03:00,21.5,16.3,30.13,WSW,243,2.0,2.0,80,0.00,,OVC050,0.00,VWS V14.01,2013-01-25 21:03:00,
2013-01-25 16:08:00,21.4,15.9,30.13,SSW,211,2.0,4.0,79,0.00,,OVC050,0.00,VWS V14.01,2013-01-25 21:08:00,
2013-01-25 16:13:00,21.2,15.7,30.13,SSW,203,1.0,2.0,79,0.00,,OVC050,0.00,VWS V14.01,2013-01-25 21:13:00,
2013-01-25 16:18:00,21.1,15.9,30.13,WSW,243,2.0,3.0,80,0.00,,OVC050,0.00,VWS V14.01,2013-01-25 21:18:00,
2013-01-25 16:23:00,21.1,16.2,30.14,SW,236,0.0,2.0,81,0.00,,OVC050,0.00,VWS V14.01,2013-01-25 21:23:00,
2013-01-25 16:28:00,21.1,15.9,30.14,SW,224,5.0,5.0,80,0.00,,OVC050,0.00,VWS V14.01,2013-01-25 21:28:00,
2013-01-25 16:33:00,21.0,15.8,30.14,SW,235,6.0,6.0,80,0.00,,OVC050,0.00,VWS V14.01,2013-01-25 21:33:00,
2013-01-25 16:38:00,20.7,15.5,30.14,SW,228,1.0,3.0,80,0.00,,OVC050,0.00,VWS V14.01,2013-01-25 21:38:00,
2013-01-25 16:43:00,20.7,15.8,30.14,SW,229,4.0,4.0,81,0.00,,OVC050,0.00,VWS V14.01,2013-01-25 21:43:00,
2013-01-25 16:48:00,20.5,15.3,30.15,South,173,3.0,7.0,80,0.00,,OVC050,0.00,VWS V14.01,2013-01-25 21:48:00,
2013-01-25 16:53:00,20.5,16.2,30.15,West,260,2.0,5.0,83,0.00,,OVC050,0.00,VWS V14.01,2013-01-25 21:53:00,
2013-01-25 16:58:00,20.5,16.2,30.15,SW,226,1.0,3.0,83,0.00,,OVC050,0.00,VWS V14.01,2013-01-25 21:58:00,
2013-01-25 17:03:00,20.5,15.6,30.15,WSW,256,3.0,3.0,81,0.00,,OVC016,0.00,VWS V14.01,2013-01-25 22:03:00,
2013-01-25 17:08:00,20.3,15.4,30.15,WSW,249,3.0,4.0,81,0.00,,OVC016,0.00,VWS V14.01,2013-01-25 22:08:00,
2013-01-25 17:12:00,20.2,15.3,30.15,SSW,205,2.0,5.0,81,0.00,,OVC016,0.00,VWS V14.01,2013-01-25 22:12:00,
2013-01-25 17:17:00,20.2,15.6,30.16,SW,225,2.0,6.0,82,0.00,,OVC016,0.00,VWS V14.01,2013-01-25 22:17:00,
2013-01-25 17:22:00,20.1,15.5,30.16,West,267,4.0,4.0,82,0.00,,OVC016,0.00,VWS V14.01,2013-01-25 22:22:00,
2013-01-25 17:27:00,20.1,15.5,30.16,SW,236,1.0,3.0,82,0.00,,OVC016,0.00,VWS V14.01,2013-01-25 22:27:00,
2013-01-25 17:32:00,20.2,15.9,30.16,WSW,250,2.0,6.0,83,0.00,,OVC016,0.00,VWS V14.01,2013-01-25 22:32:00,
2013-01-25 17:37:00,20.1,15.8,30.15,WSW,249,3.0,5.0,83,0.00,,OVC016,0.00,VWS V14.01,2013-01-25 22:37:00,
2013-01-25 17:42:00,20.1,15.8,30.15,SW,229,3.0,6.0,83,0.00,,OVC016,0.00,VWS V14.01,2013-01-25 22:42:00,
2013-01-25 17:47:00,20.0,15.7,30.16,WSW,248,3.0,3.0,83,0.00,,OVC016,0.00,VWS V14.01,2013-01-25 22:47:00,
2013-01-25 17:52:00,20.0,15.7,30.15,SW,221,1.0,2.0,83,0.00,,OVC016,0.00,VWS V14.01,2013-01-25 22:52:00,
2013-01-25 17:57:00,20.0,15.7,30.16,WSW,246,2.0,5.0,83,0.00,,OVC016,0.00,VWS V14.01,2013-01-25 22:57:00,
2013-01-25 18:02:00,20.0,15.7,30.16,West,276,1.0,4.0,83,0.00,,OVC046,0.00,VWS V14.01,2013-01-25 23:02:00,
2013-01-25 18:07:00,20.0,15.7,30.15,WSW,255,1.0,4.0,83,0.00,,OVC046,0.00,VWS V14.01,2013-01-25 23:07:00,
2013-01-25 18:12:00,20.0,15.7,30.16,WSW,249,3.0,4.0,83,0.00,,OVC046,0.00,VWS V14.01,2013-01-25 23:12:00,
2013-01-25 18:17:00,20.0,16.2,30.17,WSW,240,2.0,4.0,85,0.00,,OVC046,0.00,VWS V14.01,2013-01-25 23:17:00,
2013-01-25 18:22:00,20.2,16.7,30.17,SW,222,3.0,4.0,86,0.00,,OVC046,0.00,VWS V14.01,2013-01-25 23:22:00,
2013-01-25 18:27:00,20.1,16.0,30.17,SW,236,3.0,3.0,84,0.00,,OVC046,0.00,VWS V14.01,2013-01-25 23:27:00,
2013-01-25 18:32:00,20.0,15.9,30.17,WSW,253,5.0,5.0,84,0.00,,OVC046,0.00,VWS V14.01,2013-01-25 23:32:00,
2013-01-25 18:37:00,20.0,15.9,30.17,WSW,250,3.0,5.0,84,0.00,,OVC046,0.00,VWS V14.01,2013-01-25 23:37:00,
2013-01-25 18:42:00,19.9,15.9,30.17,SSW,207,2.0,3.0,84,0.00,,OVC046,0.00,VWS V14.01,2013-01-25 23:42:00,
2013-01-25 18:47:00,19.9,15.9,30.17,WSW,250,2.0,2.0,84,0.00,,OVC046,0.00,VWS V14.01,2013-01-25 23:47:00,
2013-01-25 18:52:00,19.9,15.9,30.17,SSW,213,3.0,3.0,84,0.00,,OVC046,0.00,VWS V14.01,2013-01-25 23:52:00,
2013-01-25 18:57:00,20.0,15.9,30.17,SW,217,4.0,5.0,84,0.00,,OVC046,0.00,VWS V14.01,2013-01-25 23:57:00,
2013-01-25 19:02:00,20.0,15.9,30.17,SSW,207,1.0,3.0,84,0.00,,OVC041,0.00,VWS V14.01,2013-01-26 00:02:00,
2013-01-25 19:07:00,20.2,16.7,30.17,SW,217,2.0,3.0,86,0.00,,OVC041,0.00,VWS V14.01,2013-01-26 00:07:00,
2013-01-25 19:12:00,20.2,16.7,30.17,SW,224,3.0,5.0,86,0.00,,OVC041,0.00,VWS V14.01,2013-01-26 00:12:00,
2013-01-25 19:17:00,20.1,16.0,30.17,SW,236,3.0,4.0,84,0.00,,OVC041,0.00,VWS V14.01,2013-01-26 00:17:00,
2013-01-25 19:22:00,20.1,16.0,30.17,SSW,205,5.0,6.0,84,0.00,,OVC041,0.00,VWS V14.01,2013-01-26 00:22:00,
2013-01-25 19:27:00,20.0,16.2,30.17,WSW,248,2.0,4.0,85,0.00,,OVC041,0.00,VWS V14.01,2013-01-26 00:27:00,
2013-01-25 19:32:00,20.0,16.2,30.17,SW,228,1.0,3.0,85,0.00,,OVC039,0.00,VWS V14.01,2013-01-26 00:32:00,
2013-01-25 19:37:00,20.0,16.2,30.17,SW,229,1.0,3.0,85,0.00,,OVC039,0.00,VWS V14.01,2013-01-26 00:37:00,
2013-01-25 19:42:00,20.0,16.2,30.17,SW,217,2.0,4.0,85,0.00,,OVC039,0.00,VWS V14.01,2013-01-26 00:42:00,
2013-01-25 19:47:00,20.0,16.2,30.17,SW,215,1.0,2.0,85,0.00,,OVC039,0.00,VWS V14.01,2013-01-26 00:47:00,
2013-01-25 19:52:00,20.0,16.2,30.17,WSW,238,3.0,3.0,85,0.00,,OVC039,0.00,VWS V14.01,2013-01-26 00:52:00,
2013-01-25 19:57:00,20.1,16.9,30.17,SW,226,4.0,5.0,87,0.00,,OVC039,0.00,VWS V14.01,2013-01-26 00:57:00,
2013-01-25 20:02:00,20.1,16.6,30.17,SW,222,3.0,4.0,86,0.00,,OVC036,0.00,VWS V14.01,2013-01-26 01:02:00,
2013-01-25 20:07:00,20.0,16.2,30.17,WSW,246,6.0,6.0,85,0.00,,OVC036,0.00,VWS V14.01,2013-01-26 01:07:00,
2013-01-25 20:12:00,20.0,16.2,30.17,SSW,212,4.0,6.0,85,0.00,,OVC036,0.00,VWS V14.01,2013-01-26 01:12:00,
2013-01-25 20:17:00,20.0,16.2,30.17,SW,235,2.0,3.0,85,0.00,,OVC036,0.00,VWS V14.01,2013-01-26 01:17:00,
2013-01-25 20:22:00,20.1,16.3,30.17,SSW,206,1.0,3.0,85,0.00,,OVC036,0.00,VWS V14.01,2013-01-26 01:22:00,
2013-01-25 20:27:00,20.1,16.3,30.18,SW,226,3.0,4.0,85,0.00,,OVC036,0.00,VWS V14.01,2013-01-26 01:27:00,
2013-01-25 20:32:00,20.2,16.4,30.18,SW,221,4.0,5.0,85,0.00,,OVC036,0.00,VWS V14.01,2013-01-26 01:32:00,
2013-01-25 20:37:00,20.2,16.4,30.18,WSW,238,5.0,8.0,85,0.00,,OVC036,0.00,VWS V14.01,2013-01-26 01:37:00,
2013-01-25 20:42:00,20.2,16.4,30.18,SSW,205,2.0,3.0,85,0.00,,OVC036,0.00,VWS V14.01,2013-01-26 01:42:00,
2013-01-25 20:47:00,20.3,16.5,30.17,SE,141,3.0,5.0,85,0.00,,OVC036,0.00,VWS V14.01,2013-01-26 01:47:00,
2013-01-25 20:52:00,20.3,16.5,30.17,South,170,4.0,7.0,85,0.00,,OVC036,0.00,VWS V14.01,2013-01-26 01:52:00,
2013-01-25 20:57:00,20.3,16.5,30.18,SW,226,3.0,3.0,85,0.00,,OVC036,0.00,VWS V14.01,2013-01-26 01:57:00,
2013-01-25 21:02:00,20.4,16.6,30.19,WSW,238,1.0,3.0,85,0.00,,OVC042,0.00,VWS V14.01,2013-01-26 02:02:00,
2013-01-25 21:07:00,20.6,16.8,30.20,WSW,240,4.0,6.0,85,0.00,,OVC042,0.00,VWS V14.01,2013-01-26 02:07:00,
2013-01-25 21:12:00,20.7,16.9,30.20,West,267,4.0,5.0,85,0.00,,OVC042,0.00,VWS V14.01,2013-01-26 02:12:00,
2013-01-25 21:17:00,20.6,16.8,30.21,WSW,246,2.0,5.0,85,0.00,,OVC042,0.00,VWS V14.01,2013-01-26 02:17:00,
2013-01-25 21:22:00,20.6,17.1,30.21,West,267,3.0,7.0,86,0.00,,OVC042,0.00,VWS V14.01,2013-01-26 02:22:00,
2013-01-25 21:27:00,20.6,17.4,30.22,West,266,3.0,4.0,87,0.00,,OVC042,0.00,VWS V14.01,2013-01-26 02:27:00,
2013-01-25 21:32:00,20.5,17.0,30.22,West,262,2.0,5.0,86,0.00,,,0.00,VWS V14.01,2013-01-26 02:32:00,
2013-01-25 21:37:00,20.6,17.1,30.22,WSW,252,2.0,4.0,86,0.00,,,0.00,VWS V14.01,2013-01-26 02:37:00,
2013-01-25 21:42:00,20.6,17.4,30.22,WSW,255,4.0,5.0,87,0.00,,,0.00,VWS V14.01,2013-01-26 02:42:00,
2013-01-25 21:47:00,20.8,17.5,30.22,SW,233,2.0,3.0,87,0.00,,,0.00,VWS V14.01,2013-01-26 02:47:00,
2013-01-25 21:52:00,20.9,17.6,30.22,SSW,211,1.0,2.0,87,0.00,,,0.00,VWS V14.01,2013-01-26 02:52:00,
2013-01-25 21:57:00,21.1,17.8,30.22,SW,228,1.0,2.0,87,0.00,,,0.00,VWS V14.01,2013-01-26 02:57:00,
2013-01-25 22:02:00,21.1,17.8,30.22,WSW,250,1.0,4.0,87,0.00,,,0.00,VWS V14.01,2013-01-26 03:02:00,
2013-01-25 22:07:00,21.1,17.8,30.22,SW,215,1.0,3.0,87,0.00,,,0.00,VWS V14.01,2013-01-26 03:07:00,
2013-01-25 22:12:00,21.2,17.9,30.22,SW,226,0.0,1.0,87,0.00,,,0.00,VWS V14.01,2013-01-26 03:12:00,
2013-01-25 22:17:00,21.2,18.2,30.22,WSW,238,2.0,3.0,88,0.00,,,0.00,VWS V14.01,2013-01-26 03:17:00,
2013-01-25 22:22:00,21.5,18.8,30.22,WSW,243,3.0,3.0,89,0.00,,,0.00,VWS V14.01,2013-01-26 03:22:00,
2013-01-25 22:27:00,21.5,18.8,30.22,SSW,201,2.0,4.0,89,0.00,,,0.00,VWS V14.01,2013-01-26 03:27:00,
2013-01-25 22:32:00,21.5,18.8,30.22,ESE,105,1.0,4.0,89,0.00,,,0.00,VWS V14.01,2013-01-26 03:32:00,
2013-01-25 22:37:00,21.6,18.9,30.22,SW,224,3.0,5.0,89,0.00,,,0.00,VWS V14.01,2013-01-26 03:37:00,
2013-01-25 22:42:00,21.7,19.0,30.22,SW,228,4.0,7.0,89,0.00,,,0.00,VWS V14.01,2013-01-26 03:42:00,
2013-01-25 22:47:00,21.8,19.3,30.22,SSW,210,3.0,5.0,90,0.00,,,0.00,VWS V14.01,2013-01-26 03:47:00,
2013-01-25 22:52:00,21.9,19.4,30.22,WSW,242,5.0,5.0,90,0.00,,,0.00,VWS V14.01,2013-01-26 03:52:00,
2013-01-25 22:57:00,22.1,19.9,30.22,SW,233,2.0,5.0,91,0.00,,,0.00,VWS V14.01,2013-01-26 03:57:00,
2013-01-25 23:02:00,22.3,19.8,30.22,SW,232,4.0,5.0,90,0.00,,,0.00,VWS V14.01,2013-01-26 04:02:00,
2013-01-25 23:07:00,22.5,20.0,30.21,SW,222,7.0,7.0,90,0.00,,,0.00,VWS V14.01,2013-01-26 04:07:00,
2013-01-25 23:12:00,22.6,20.1,30.20,SSW,205,8.0,9.0,90,0.00,,,0.00,VWS V14.01,2013-01-26 04:12:00,
2013-01-25 23:17:00,22.6,20.1,30.21,SSW,195,4.0,8.0,90,0.00,,,0.00,VWS V14.01,2013-01-26 04:17:00,
2013-01-25 23:22:00,22.7,20.2,30.21,SW,233,3.0,5.0,90,0.00,,,0.00,VWS V14.01,2013-01-26 04:22:00,
2013-01-25 23:27:00,22.8,20.0,30.21,WSW,252,4.0,4.0,89,0.00,,,0.00,VWS V14.01,2013-01-26 04:27:00,
2013-01-25 23:32:00,22.8,20.0,30.21,SW,229,4.0,6.0,89,0.00,,,0.00,VWS V14.01,2013-01-26 04:32:00,
2013-01-25 23:37:00,22.8,20.0,30.21,WSW,248,3.0,7.0,89,0.00,,,0.00,VWS V14.01,2013-01-26 04:37:00,
2013-01-25 23:42:00,22.9,20.1,30.21,WSW,240,2.0,4.0,89,0.00,,,0.00,VWS V14.01,2013-01-26 04:42:00,
2013-01-25 23:47:00,22.9,20.1,30.21,WSW,250,1.0,5.0,89,0.00,,,0.00,VWS V14.01,2013-01-26 04:47:00,
2013-01-25 23:52:00,23.0,20.2,30.21,WSW,257,1.0,5.0,89,0.00,,,0.00,VWS V14.01,2013-01-26 04:52:00,
2013-01-25 23:57:00,23.0,20.2,30.21,WSW,252,3.0,5.0,89,0.00,,,0.00,VWS V14.01,2013-01-26 04:57:00,